sensor_id;sensor_type;location;lat;lon;timestamp;P1;durP1;ratioP1;P2;durP2;ratioP2
31438;SDS011;18062;48.872;9.220;2023-04-21T00:00:12;1.70;;;1.30;;
31438;SDS011;18062;48.872;9.220;2023-04-21T00:02:38;2.67;;;1.83;;
31438;SDS011;18062;48.872;9.220;2023-04-21T00:05:07;2.10;;;1.60;;
31438;SDS011;18062;48.872;9.220;2023-04-21T00:07:38;3.03;;;2.20;;
31438;SDS011;18062;48.872;9.220;2023-04-21T00:10:07;3.40;;;1.60;;
31438;SDS011;18062;48.872;9.220;2023-04-21T00:12:34;1.27;;;1.17;;
31438;SDS011;18062;48.872;9.220;2023-04-21T00:15:00;3.10;;;1.97;;
31438;SDS011;18062;48.872;9.220;2023-04-21T00:17:26;1.73;;;1.63;;
31438;SDS011;18062;48.872;9.220;2023-04-21T00:19:52;2.07;;;1.87;;
31438;SDS011;18062;48.872;9.220;2023-04-21T00:22:18;3.10;;;2.03;;
31438;SDS011;18062;48.872;9.220;2023-04-21T00:24:45;2.07;;;1.87;;
31438;SDS011;18062;48.872;9.220;2023-04-21T00:27:11;2.13;;;1.40;;
31438;SDS011;18062;48.872;9.220;2023-04-21T00:29:39;2.30;;;2.10;;
31438;SDS011;18062;48.872;9.220;2023-04-21T00:32:06;3.87;;;2.50;;
31438;SDS011;18062;48.872;9.220;2023-04-21T00:34:35;4.33;;;1.87;;
31438;SDS011;18062;48.872;9.220;2023-04-21T00:37:01;2.23;;;1.87;;
31438;SDS011;18062;48.872;9.220;2023-04-21T00:39:27;3.63;;;2.27;;
31438;SDS011;18062;48.872;9.220;2023-04-21T00:41:53;2.07;;;1.87;;
31438;SDS011;18062;48.872;9.220;2023-04-21T00:44:19;2.10;;;1.43;;
31438;SDS011;18062;48.872;9.220;2023-04-21T00:46:45;2.10;;;1.77;;
31438;SDS011;18062;48.872;9.220;2023-04-21T00:49:12;1.93;;;1.50;;
31438;SDS011;18062;48.872;9.220;2023-04-21T00:51:39;1.73;;;1.50;;
31438;SDS011;18062;48.872;9.220;2023-04-21T00:54:05;4.00;;;2.03;;
31438;SDS011;18062;48.872;9.220;2023-04-21T00:56:32;3.00;;;2.03;;
31438;SDS011;18062;48.872;9.220;2023-04-21T00:58:59;1.77;;;1.67;;
31438;SDS011;18062;48.872;9.220;2023-04-21T01:01:27;2.90;;;2.60;;
31438;SDS011;18062;48.872;9.220;2023-04-21T01:03:55;2.80;;;2.13;;
31438;SDS011;18062;48.872;9.220;2023-04-21T01:06:21;2.67;;;1.67;;
31438;SDS011;18062;48.872;9.220;2023-04-21T01:08:47;2.57;;;1.70;;
31438;SDS011;18062;48.872;9.220;2023-04-21T01:11:13;2.63;;;1.87;;
31438;SDS011;18062;48.872;9.220;2023-04-21T01:13:39;1.80;;;1.70;;
31438;SDS011;18062;48.872;9.220;2023-04-21T01:16:05;1.70;;;1.40;;
31438;SDS011;18062;48.872;9.220;2023-04-21T01:18:32;1.33;;;1.23;;
31438;SDS011;18062;48.872;9.220;2023-04-21T01:20:58;2.27;;;2.10;;
31438;SDS011;18062;48.872;9.220;2023-04-21T01:23:25;4.20;;;2.97;;
31438;SDS011;18062;48.872;9.220;2023-04-21T01:25:51;3.97;;;1.70;;
31438;SDS011;18062;48.872;9.220;2023-04-21T01:28:20;2.20;;;1.30;;
31438;SDS011;18062;48.872;9.220;2023-04-21T01:30:46;3.63;;;2.00;;
31438;SDS011;18062;48.872;9.220;2023-04-21T01:33:12;5.80;;;1.70;;
31438;SDS011;18062;48.872;9.220;2023-04-21T01:35:39;1.53;;;1.37;;
31438;SDS011;18062;48.872;9.220;2023-04-21T01:38:05;1.40;;;1.30;;
31438;SDS011;18062;48.872;9.220;2023-04-21T01:40:31;1.27;;;1.17;;
31438;SDS011;18062;48.872;9.220;2023-04-21T01:42:57;4.47;;;1.97;;
31438;SDS011;18062;48.872;9.220;2023-04-21T01:45:23;1.70;;;1.43;;
31438;SDS011;18062;48.872;9.220;2023-04-21T01:47:49;2.07;;;1.73;;
31438;SDS011;18062;48.872;9.220;2023-04-21T01:50:15;3.23;;;2.93;;
31438;SDS011;18062;48.872;9.220;2023-04-21T01:52:42;2.50;;;1.53;;
31438;SDS011;18062;48.872;9.220;2023-04-21T01:55:08;1.47;;;1.17;;
31438;SDS011;18062;48.872;9.220;2023-04-21T01:57:34;1.67;;;1.57;;
31438;SDS011;18062;48.872;9.220;2023-04-21T02:00:00;1.63;;;1.53;;
31438;SDS011;18062;48.872;9.220;2023-04-21T02:02:27;1.47;;;1.07;;
31438;SDS011;18062;48.872;9.220;2023-04-21T02:04:52;2.10;;;1.73;;
31438;SDS011;18062;48.872;9.220;2023-04-21T02:07:19;1.67;;;1.57;;
31438;SDS011;18062;48.872;9.220;2023-04-21T02:09:45;1.87;;;1.73;;
31438;SDS011;18062;48.872;9.220;2023-04-21T02:12:11;1.03;;;0.97;;
31438;SDS011;18062;48.872;9.220;2023-04-21T02:14:37;3.20;;;1.60;;
31438;SDS011;18062;48.872;9.220;2023-04-21T02:17:03;2.50;;;0.97;;
31438;SDS011;18062;48.872;9.220;2023-04-21T02:19:29;1.60;;;1.33;;
31438;SDS011;18062;48.872;9.220;2023-04-21T02:21:55;1.80;;;1.33;;
31438;SDS011;18062;48.872;9.220;2023-04-21T02:24:21;1.60;;;1.50;;
31438;SDS011;18062;48.872;9.220;2023-04-21T02:26:47;1.43;;;1.07;;
31438;SDS011;18062;48.872;9.220;2023-04-21T02:29:13;1.43;;;1.33;;
31438;SDS011;18062;48.872;9.220;2023-04-21T02:31:39;0.60;;;0.60;;
31438;SDS011;18062;48.872;9.220;2023-04-21T02:34:06;1.17;;;1.07;;
31438;SDS011;18062;48.872;9.220;2023-04-21T02:36:32;0.53;;;0.53;;
31438;SDS011;18062;48.872;9.220;2023-04-21T02:38:58;1.23;;;1.17;;
31438;SDS011;18062;48.872;9.220;2023-04-21T02:41:24;0.60;;;0.50;;
31438;SDS011;18062;48.872;9.220;2023-04-21T02:43:50;1.10;;;0.80;;
31438;SDS011;18062;48.872;9.220;2023-04-21T02:46:16;0.80;;;0.80;;
31438;SDS011;18062;48.872;9.220;2023-04-21T02:48:42;2.30;;;1.40;;
31438;SDS011;18062;48.872;9.220;2023-04-21T02:51:11;0.63;;;0.63;;
31438;SDS011;18062;48.872;9.220;2023-04-21T02:53:37;0.40;;;0.40;;
31438;SDS011;18062;48.872;9.220;2023-04-21T02:56:04;1.33;;;1.20;;
31438;SDS011;18062;48.872;9.220;2023-04-21T02:58:30;0.70;;;0.70;;
31438;SDS011;18062;48.872;9.220;2023-04-21T03:00:56;1.40;;;1.30;;
31438;SDS011;18062;48.872;9.220;2023-04-21T03:03:22;1.13;;;1.07;;
31438;SDS011;18062;48.872;9.220;2023-04-21T03:05:48;0.60;;;0.60;;
31438;SDS011;18062;48.872;9.220;2023-04-21T03:08:20;1.53;;;1.43;;
31438;SDS011;18062;48.872;9.220;2023-04-21T03:10:46;0.80;;;0.80;;
31438;SDS011;18062;48.872;9.220;2023-04-21T03:13:12;1.57;;;1.47;;
31438;SDS011;18062;48.872;9.220;2023-04-21T03:15:38;0.50;;;0.50;;
31438;SDS011;18062;48.872;9.220;2023-04-21T03:18:04;0.87;;;0.87;;
31438;SDS011;18062;48.872;9.220;2023-04-21T03:20:30;1.63;;;1.53;;
31438;SDS011;18062;48.872;9.220;2023-04-21T03:22:56;0.67;;;0.67;;
31438;SDS011;18062;48.872;9.220;2023-04-21T03:25:22;1.53;;;1.43;;
31438;SDS011;18062;48.872;9.220;2023-04-21T03:27:49;1.30;;;1.03;;
31438;SDS011;18062;48.872;9.220;2023-04-21T03:30:15;1.40;;;1.30;;
31438;SDS011;18062;48.872;9.220;2023-04-21T03:32:41;0.83;;;0.83;;
31438;SDS011;18062;48.872;9.220;2023-04-21T03:35:07;1.30;;;1.20;;
31438;SDS011;18062;48.872;9.220;2023-04-21T03:37:33;2.13;;;1.80;;
31438;SDS011;18062;48.872;9.220;2023-04-21T03:39:59;0.63;;;0.63;;
31438;SDS011;18062;48.872;9.220;2023-04-21T03:42:25;0.70;;;0.70;;
31438;SDS011;18062;48.872;9.220;2023-04-21T03:44:51;0.87;;;0.87;;
31438;SDS011;18062;48.872;9.220;2023-04-21T03:47:17;1.07;;;1.07;;
31438;SDS011;18062;48.872;9.220;2023-04-21T03:49:43;3.27;;;1.47;;
31438;SDS011;18062;48.872;9.220;2023-04-21T03:52:09;0.77;;;0.77;;
31438;SDS011;18062;48.872;9.220;2023-04-21T03:54:35;2.43;;;1.43;;
31438;SDS011;18062;48.872;9.220;2023-04-21T03:57:01;0.93;;;0.93;;
31438;SDS011;18062;48.872;9.220;2023-04-21T03:59:27;0.90;;;0.90;;
31438;SDS011;18062;48.872;9.220;2023-04-21T04:01:53;1.27;;;1.17;;
31438;SDS011;18062;48.872;9.220;2023-04-21T04:04:19;2.03;;;0.90;;
31438;SDS011;18062;48.872;9.220;2023-04-21T04:06:45;1.60;;;1.33;;
31438;SDS011;18062;48.872;9.220;2023-04-21T04:09:11;1.20;;;1.10;;
31438;SDS011;18062;48.872;9.220;2023-04-21T04:11:37;1.63;;;1.37;;
31438;SDS011;18062;48.872;9.220;2023-04-21T04:14:03;0.83;;;0.83;;
31438;SDS011;18062;48.872;9.220;2023-04-21T04:16:29;2.57;;;1.53;;
31438;SDS011;18062;48.872;9.220;2023-04-21T04:18:55;1.60;;;1.00;;
31438;SDS011;18062;48.872;9.220;2023-04-21T04:21:21;1.50;;;1.23;;
31438;SDS011;18062;48.872;9.220;2023-04-21T04:23:48;1.47;;;1.20;;
31438;SDS011;18062;48.872;9.220;2023-04-21T04:26:16;1.57;;;1.23;;
31438;SDS011;18062;48.872;9.220;2023-04-21T04:28:42;0.83;;;0.77;;
31438;SDS011;18062;48.872;9.220;2023-04-21T04:31:08;1.10;;;1.00;;
31438;SDS011;18062;48.872;9.220;2023-04-21T04:33:34;0.60;;;0.57;;
31438;SDS011;18062;48.872;9.220;2023-04-21T04:36:00;2.00;;;1.83;;
31438;SDS011;18062;48.872;9.220;2023-04-21T04:38:26;0.90;;;0.90;;
31438;SDS011;18062;48.872;9.220;2023-04-21T04:40:54;1.67;;;1.20;;
31438;SDS011;18062;48.872;9.220;2023-04-21T04:43:21;1.00;;;1.00;;
31438;SDS011;18062;48.872;9.220;2023-04-21T04:45:48;3.43;;;1.97;;
31438;SDS011;18062;48.872;9.220;2023-04-21T04:48:14;2.27;;;1.30;;
31438;SDS011;18062;48.872;9.220;2023-04-21T04:50:40;1.13;;;1.03;;
31438;SDS011;18062;48.872;9.220;2023-04-21T04:53:06;1.70;;;1.47;;
31438;SDS011;18062;48.872;9.220;2023-04-21T04:55:32;0.97;;;0.80;;
31438;SDS011;18062;48.872;9.220;2023-04-21T04:57:58;2.03;;;1.30;;
31438;SDS011;18062;48.872;9.220;2023-04-21T05:00:25;1.67;;;1.30;;
31438;SDS011;18062;48.872;9.220;2023-04-21T05:02:52;2.73;;;1.50;;
31438;SDS011;18062;48.872;9.220;2023-04-21T05:05:18;2.00;;;1.27;;
31438;SDS011;18062;48.872;9.220;2023-04-21T05:07:46;1.50;;;1.40;;
31438;SDS011;18062;48.872;9.220;2023-04-21T05:10:12;1.83;;;1.60;;
31438;SDS011;18062;48.872;9.220;2023-04-21T05:12:38;15.93;;;2.53;;
31438;SDS011;18062;48.872;9.220;2023-04-21T05:15:04;1.30;;;1.20;;
31438;SDS011;18062;48.872;9.220;2023-04-21T05:17:31;1.37;;;0.77;;
31438;SDS011;18062;48.872;9.220;2023-04-21T05:19:57;0.93;;;0.80;;
31438;SDS011;18062;48.872;9.220;2023-04-21T05:22:23;1.03;;;1.03;;
31438;SDS011;18062;48.872;9.220;2023-04-21T05:24:50;2.00;;;1.80;;
31438;SDS011;18062;48.872;9.220;2023-04-21T05:27:16;1.67;;;1.07;;
31438;SDS011;18062;48.872;9.220;2023-04-21T05:29:42;2.20;;;1.43;;
31438;SDS011;18062;48.872;9.220;2023-04-21T05:32:08;1.77;;;1.17;;
31438;SDS011;18062;48.872;9.220;2023-04-21T05:34:36;1.07;;;1.03;;
31438;SDS011;18062;48.872;9.220;2023-04-21T05:37:02;1.03;;;0.93;;
31438;SDS011;18062;48.872;9.220;2023-04-21T05:39:28;2.30;;;1.90;;
31438;SDS011;18062;48.872;9.220;2023-04-21T05:41:54;2.00;;;1.40;;
31438;SDS011;18062;48.872;9.220;2023-04-21T05:44:20;2.23;;;1.60;;
31438;SDS011;18062;48.872;9.220;2023-04-21T05:46:46;2.93;;;1.83;;
31438;SDS011;18062;48.872;9.220;2023-04-21T05:49:12;1.37;;;1.27;;
31438;SDS011;18062;48.872;9.220;2023-04-21T05:51:38;1.20;;;1.13;;
31438;SDS011;18062;48.872;9.220;2023-04-21T05:54:04;1.20;;;1.10;;
31438;SDS011;18062;48.872;9.220;2023-04-21T05:56:30;1.13;;;1.03;;
31438;SDS011;18062;48.872;9.220;2023-04-21T05:58:56;2.60;;;1.60;;
31438;SDS011;18062;48.872;9.220;2023-04-21T06:01:22;1.40;;;1.30;;
31438;SDS011;18062;48.872;9.220;2023-04-21T06:03:48;3.13;;;1.60;;
31438;SDS011;18062;48.872;9.220;2023-04-21T06:06:14;1.50;;;1.40;;
31438;SDS011;18062;48.872;9.220;2023-04-21T06:08:41;1.17;;;1.07;;
31438;SDS011;18062;48.872;9.220;2023-04-21T06:11:07;3.97;;;1.63;;
31438;SDS011;18062;48.872;9.220;2023-04-21T06:13:33;1.80;;;1.37;;
31438;SDS011;18062;48.872;9.220;2023-04-21T06:15:59;1.33;;;1.20;;
31438;SDS011;18062;48.872;9.220;2023-04-21T06:18:25;2.27;;;1.77;;
31438;SDS011;18062;48.872;9.220;2023-04-21T06:20:52;2.27;;;1.87;;
31438;SDS011;18062;48.872;9.220;2023-04-21T06:23:19;1.60;;;1.37;;
31438;SDS011;18062;48.872;9.220;2023-04-21T06:25:45;1.80;;;1.57;;
31438;SDS011;18062;48.872;9.220;2023-04-21T06:28:11;3.73;;;2.30;;
31438;SDS011;18062;48.872;9.220;2023-04-21T06:30:37;2.97;;;2.27;;
31438;SDS011;18062;48.872;9.220;2023-04-21T06:33:03;3.13;;;2.40;;
31438;SDS011;18062;48.872;9.220;2023-04-21T06:35:30;2.87;;;1.73;;
31438;SDS011;18062;48.872;9.220;2023-04-21T06:37:56;5.37;;;2.50;;
31438;SDS011;18062;48.872;9.220;2023-04-21T06:40:22;4.23;;;2.77;;
31438;SDS011;18062;48.872;9.220;2023-04-21T06:42:48;3.13;;;2.27;;
31438;SDS011;18062;48.872;9.220;2023-04-21T06:45:14;4.30;;;2.67;;
31438;SDS011;18062;48.872;9.220;2023-04-21T06:47:40;3.77;;;2.03;;
31438;SDS011;18062;48.872;9.220;2023-04-21T06:50:06;4.27;;;2.70;;
31438;SDS011;18062;48.872;9.220;2023-04-21T06:52:33;3.90;;;2.87;;
31438;SDS011;18062;48.872;9.220;2023-04-21T06:54:59;6.93;;;3.37;;
31438;SDS011;18062;48.872;9.220;2023-04-21T06:57:25;5.73;;;3.57;;
31438;SDS011;18062;48.872;9.220;2023-04-21T06:59:51;4.23;;;2.40;;
31438;SDS011;18062;48.872;9.220;2023-04-21T07:02:17;5.13;;;2.73;;
31438;SDS011;18062;48.872;9.220;2023-04-21T07:04:43;2.90;;;2.57;;
31438;SDS011;18062;48.872;9.220;2023-04-21T07:07:09;3.50;;;2.27;;
31438;SDS011;18062;48.872;9.220;2023-04-21T07:09:35;3.87;;;2.33;;
31438;SDS011;18062;48.872;9.220;2023-04-21T07:12:01;2.70;;;2.30;;
31438;SDS011;18062;48.872;9.220;2023-04-21T07:14:27;5.63;;;2.53;;
31438;SDS011;18062;48.872;9.220;2023-04-21T07:16:53;3.03;;;2.33;;
31438;SDS011;18062;48.872;9.220;2023-04-21T07:19:21;2.40;;;2.20;;
31438;SDS011;18062;48.872;9.220;2023-04-21T07:21:47;4.37;;;2.87;;
31438;SDS011;18062;48.872;9.220;2023-04-21T07:24:13;3.17;;;2.27;;
31438;SDS011;18062;48.872;9.220;2023-04-21T07:26:39;4.17;;;2.67;;
31438;SDS011;18062;48.872;9.220;2023-04-21T07:29:05;3.67;;;2.63;;
31438;SDS011;18062;48.872;9.220;2023-04-21T07:31:31;4.10;;;2.27;;
31438;SDS011;18062;48.872;9.220;2023-04-21T07:33:57;5.83;;;2.93;;
31438;SDS011;18062;48.872;9.220;2023-04-21T07:36:23;3.53;;;2.63;;
31438;SDS011;18062;48.872;9.220;2023-04-21T07:38:50;4.00;;;2.60;;
31438;SDS011;18062;48.872;9.220;2023-04-21T07:41:16;4.67;;;3.17;;
31438;SDS011;18062;48.872;9.220;2023-04-21T07:43:42;4.40;;;2.50;;
31438;SDS011;18062;48.872;9.220;2023-04-21T07:46:08;4.53;;;3.30;;
31438;SDS011;18062;48.872;9.220;2023-04-21T07:48:34;3.53;;;3.07;;
31438;SDS011;18062;48.872;9.220;2023-04-21T07:51:00;4.13;;;2.80;;
31438;SDS011;18062;48.872;9.220;2023-04-21T07:53:27;3.00;;;2.30;;
31438;SDS011;18062;48.872;9.220;2023-04-21T07:55:54;2.53;;;2.00;;
31438;SDS011;18062;48.872;9.220;2023-04-21T07:58:20;4.50;;;2.50;;
31438;SDS011;18062;48.872;9.220;2023-04-21T08:00:47;3.53;;;3.00;;
31438;SDS011;18062;48.872;9.220;2023-04-21T08:03:13;4.67;;;2.53;;
31438;SDS011;18062;48.872;9.220;2023-04-21T08:05:39;3.77;;;2.83;;
31438;SDS011;18062;48.872;9.220;2023-04-21T08:08:05;3.87;;;2.47;;
31438;SDS011;18062;48.872;9.220;2023-04-21T08:10:31;4.13;;;3.07;;
31438;SDS011;18062;48.872;9.220;2023-04-21T08:12:57;4.50;;;2.90;;
31438;SDS011;18062;48.872;9.220;2023-04-21T08:15:23;4.07;;;3.10;;
31438;SDS011;18062;48.872;9.220;2023-04-21T08:17:49;5.30;;;2.90;;
31438;SDS011;18062;48.872;9.220;2023-04-21T08:20:15;4.93;;;3.33;;
31438;SDS011;18062;48.872;9.220;2023-04-21T08:22:41;3.80;;;2.90;;
31438;SDS011;18062;48.872;9.220;2023-04-21T08:25:07;4.27;;;2.87;;
31438;SDS011;18062;48.872;9.220;2023-04-21T08:27:36;3.47;;;2.53;;
31438;SDS011;18062;48.872;9.220;2023-04-21T08:30:03;4.20;;;2.53;;
31438;SDS011;18062;48.872;9.220;2023-04-21T08:32:29;2.60;;;2.13;;
31438;SDS011;18062;48.872;9.220;2023-04-21T08:34:55;3.20;;;2.63;;
31438;SDS011;18062;48.872;9.220;2023-04-21T08:37:21;4.00;;;2.20;;
31438;SDS011;18062;48.872;9.220;2023-04-21T08:39:48;3.70;;;2.63;;
31438;SDS011;18062;48.872;9.220;2023-04-21T08:42:15;3.77;;;3.10;;
31438;SDS011;18062;48.872;9.220;2023-04-21T08:44:41;3.77;;;2.87;;
31438;SDS011;18062;48.872;9.220;2023-04-21T08:47:09;3.00;;;2.30;;
31438;SDS011;18062;48.872;9.220;2023-04-21T08:49:35;5.53;;;2.90;;
31438;SDS011;18062;48.872;9.220;2023-04-21T08:52:02;3.67;;;2.50;;
31438;SDS011;18062;48.872;9.220;2023-04-21T08:54:28;4.20;;;3.27;;
31438;SDS011;18062;48.872;9.220;2023-04-21T08:56:55;4.77;;;3.23;;
31438;SDS011;18062;48.872;9.220;2023-04-21T08:59:21;4.73;;;2.93;;
31438;SDS011;18062;48.872;9.220;2023-04-21T09:02:20;4.23;;;2.77;;
31438;SDS011;18062;48.872;9.220;2023-04-21T09:04:46;3.10;;;2.60;;
31438;SDS011;18062;48.872;9.220;2023-04-21T09:07:33;3.13;;;2.70;;
31438;SDS011;18062;48.872;9.220;2023-04-21T09:10:00;2.83;;;2.50;;
31438;SDS011;18062;48.872;9.220;2023-04-21T09:12:27;3.30;;;2.27;;
31438;SDS011;18062;48.872;9.220;2023-04-21T09:14:54;3.50;;;2.85;;
31438;SDS011;18062;48.872;9.220;2023-04-21T09:17:26;3.17;;;2.88;;
31438;SDS011;18062;48.872;9.220;2023-04-21T09:19:56;2.70;;;2.50;;
31438;SDS011;18062;48.872;9.220;2023-04-21T09:22:25;2.85;;;2.60;;
31438;SDS011;18062;48.872;9.220;2023-04-21T09:24:56;2.00;;;1.80;;
31438;SDS011;18062;48.872;9.220;2023-04-21T09:27:24;3.78;;;2.55;;
31438;SDS011;18062;48.872;9.220;2023-04-21T09:29:50;2.85;;;2.53;;
31438;SDS011;18062;48.872;9.220;2023-04-21T09:32:16;2.70;;;2.20;;
31438;SDS011;18062;48.872;9.220;2023-04-21T09:34:43;2.70;;;2.50;;
31438;SDS011;18062;48.872;9.220;2023-04-21T09:37:09;3.15;;;2.80;;
31438;SDS011;18062;48.872;9.220;2023-04-21T09:39:36;3.00;;;2.70;;
31438;SDS011;18062;48.872;9.220;2023-04-21T09:42:02;2.75;;;2.33;;
31438;SDS011;18062;48.872;9.220;2023-04-21T09:44:28;2.22;;;2.03;;
31438;SDS011;18062;48.872;9.220;2023-04-21T09:46:57;3.72;;;3.20;;
31438;SDS011;18062;48.872;9.220;2023-04-21T09:49:26;4.32;;;3.10;;
31438;SDS011;18062;48.872;9.220;2023-04-21T09:51:54;2.65;;;2.45;;
31438;SDS011;18062;48.872;9.220;2023-04-21T09:54:20;2.35;;;2.03;;
31438;SDS011;18062;48.872;9.220;2023-04-21T09:56:51;3.38;;;3.08;;
31438;SDS011;18062;48.872;9.220;2023-04-21T09:59:23;2.70;;;2.50;;
31438;SDS011;18062;48.872;9.220;2023-04-21T10:01:51;1.80;;;1.70;;
31438;SDS011;18062;48.872;9.220;2023-04-21T10:04:18;2.83;;;2.53;;
31438;SDS011;18062;48.872;9.220;2023-04-21T10:06:46;2.15;;;1.95;;
31438;SDS011;18062;48.872;9.220;2023-04-21T10:09:12;3.45;;;2.50;;
31438;SDS011;18062;48.872;9.220;2023-04-21T10:11:39;2.80;;;2.47;;
31438;SDS011;18062;48.872;9.220;2023-04-21T10:14:05;2.58;;;2.28;;
31438;SDS011;18062;48.872;9.220;2023-04-21T10:16:34;1.95;;;1.83;;
31438;SDS011;18062;48.872;9.220;2023-04-21T10:19:02;2.80;;;2.25;;
31438;SDS011;18062;48.872;9.220;2023-04-21T10:21:48;3.65;;;3.25;;
31438;SDS011;18062;48.872;9.220;2023-04-21T10:24:14;2.17;;;1.98;;
31438;SDS011;18062;48.872;9.220;2023-04-21T10:26:40;4.22;;;2.17;;
31438;SDS011;18062;48.872;9.220;2023-04-21T10:29:06;2.33;;;2.13;;
31438;SDS011;18062;48.872;9.220;2023-04-21T10:31:49;2.38;;;1.95;;
31438;SDS011;18062;48.872;9.220;2023-04-21T10:34:17;2.70;;;2.50;;
31438;SDS011;18062;48.872;9.220;2023-04-21T10:39:24;4.13;;;2.30;;
31438;SDS011;18062;48.872;9.220;2023-04-21T10:41:51;2.13;;;1.92;;
31438;SDS011;18062;48.872;9.220;2023-04-21T10:44:27;2.15;;;1.95;;
31438;SDS011;18062;48.872;9.220;2023-04-21T10:47:05;2.10;;;1.90;;
31438;SDS011;18062;48.872;9.220;2023-04-21T10:49:32;2.50;;;2.30;;
31438;SDS011;18062;48.872;9.220;2023-04-21T10:52:06;3.08;;;2.55;;
31438;SDS011;18062;48.872;9.220;2023-04-21T10:54:35;2.70;;;2.50;;
31438;SDS011;18062;48.872;9.220;2023-04-21T10:57:16;2.15;;;1.95;;
31438;SDS011;18062;48.872;9.220;2023-04-21T10:59:43;2.50;;;2.13;;
31438;SDS011;18062;48.872;9.220;2023-04-21T11:05:24;2.00;;;1.80;;
31438;SDS011;18062;48.872;9.220;2023-04-21T11:07:51;2.47;;;2.03;;
31438;SDS011;18062;48.872;9.220;2023-04-21T11:10:17;2.58;;;2.38;;
31438;SDS011;18062;48.872;9.220;2023-04-21T11:12:43;2.50;;;2.30;;
31438;SDS011;18062;48.872;9.220;2023-04-21T11:15:10;2.17;;;2.05;;
31438;SDS011;18062;48.872;9.220;2023-04-21T11:17:37;1.83;;;1.73;;
31438;SDS011;18062;48.872;9.220;2023-04-21T11:20:04;2.33;;;2.13;;
31438;SDS011;18062;48.872;9.220;2023-04-21T11:22:31;2.33;;;2.13;;
31438;SDS011;18062;48.872;9.220;2023-04-21T11:24:57;2.38;;;2.17;;
31438;SDS011;18062;48.872;9.220;2023-04-21T11:27:27;2.60;;;2.40;;
31438;SDS011;18062;48.872;9.220;2023-04-21T11:29:54;2.28;;;2.08;;
31438;SDS011;18062;48.872;9.220;2023-04-21T11:32:21;2.45;;;2.17;;
31438;SDS011;18062;48.872;9.220;2023-04-21T11:34:47;2.40;;;2.20;;
31438;SDS011;18062;48.872;9.220;2023-04-21T11:37:14;2.47;;;2.03;;
31438;SDS011;18062;48.872;9.220;2023-04-21T11:39:40;2.28;;;2.08;;
31438;SDS011;18062;48.872;9.220;2023-04-21T11:42:07;4.00;;;2.00;;
31438;SDS011;18062;48.872;9.220;2023-04-21T11:47:10;2.30;;;2.10;;
31438;SDS011;18062;48.872;9.220;2023-04-21T11:49:42;2.13;;;1.95;;
31438;SDS011;18062;48.872;9.220;2023-04-21T11:52:08;2.00;;;1.88;;
31438;SDS011;18062;48.872;9.220;2023-04-21T11:54:34;2.25;;;1.80;;
31438;SDS011;18062;48.872;9.220;2023-04-21T11:57:00;1.80;;;1.70;;
31438;SDS011;18062;48.872;9.220;2023-04-21T11:59:26;2.20;;;2.00;;
31438;SDS011;18062;48.872;9.220;2023-04-21T12:01:53;2.00;;;1.80;;
31438;SDS011;18062;48.872;9.220;2023-04-21T12:04:20;1.80;;;1.70;;
31438;SDS011;18062;48.872;9.220;2023-04-21T12:06:54;2.17;;;2.00;;
31438;SDS011;18062;48.872;9.220;2023-04-21T12:09:21;2.95;;;2.67;;
31438;SDS011;18062;48.872;9.220;2023-04-21T12:11:47;2.40;;;2.20;;
31438;SDS011;18062;48.872;9.220;2023-04-21T12:14:14;2.20;;;2.00;;
31438;SDS011;18062;48.872;9.220;2023-04-21T12:16:40;2.78;;;1.83;;
31438;SDS011;18062;48.872;9.220;2023-04-21T12:19:07;2.00;;;1.90;;
31438;SDS011;18062;48.872;9.220;2023-04-21T12:21:35;1.85;;;1.75;;
31438;SDS011;18062;48.872;9.220;2023-04-21T12:24:02;2.05;;;1.92;;
31438;SDS011;18062;48.872;9.220;2023-04-21T12:26:28;2.00;;;1.90;;
31438;SDS011;18062;48.872;9.220;2023-04-21T12:28:54;2.30;;;2.10;;
31438;SDS011;18062;48.872;9.220;2023-04-21T12:31:20;2.80;;;2.60;;
31438;SDS011;18062;48.872;9.220;2023-04-21T12:33:46;1.95;;;1.85;;
31438;SDS011;18062;48.872;9.220;2023-04-21T12:36:12;2.20;;;2.00;;
31438;SDS011;18062;48.872;9.220;2023-04-21T12:38:38;2.55;;;2.35;;
31438;SDS011;18062;48.872;9.220;2023-04-21T12:41:04;2.33;;;2.13;;
31438;SDS011;18062;48.872;9.220;2023-04-21T12:43:31;1.85;;;1.75;;
31438;SDS011;18062;48.872;9.220;2023-04-21T12:45:57;2.25;;;2.05;;
31438;SDS011;18062;48.872;9.220;2023-04-21T12:48:22;2.53;;;2.33;;
31438;SDS011;18062;48.872;9.220;2023-04-21T12:50:48;1.83;;;1.73;;
31438;SDS011;18062;48.872;9.220;2023-04-21T12:53:15;1.70;;;1.60;;
31438;SDS011;18062;48.872;9.220;2023-04-21T12:55:41;2.28;;;2.08;;
31438;SDS011;18062;48.872;9.220;2023-04-21T12:58:07;2.05;;;1.95;;
31438;SDS011;18062;48.872;9.220;2023-04-21T13:00:33;1.70;;;1.60;;
31438;SDS011;18062;48.872;9.220;2023-04-21T13:02:59;1.70;;;1.60;;
31438;SDS011;18062;48.872;9.220;2023-04-21T13:05:25;2.00;;;1.90;;
31438;SDS011;18062;48.872;9.220;2023-04-21T13:07:52;1.70;;;1.60;;
31438;SDS011;18062;48.872;9.220;2023-04-21T13:10:19;2.22;;;2.03;;
31438;SDS011;18062;48.872;9.220;2023-04-21T13:12:45;2.10;;;1.85;;
31438;SDS011;18062;48.872;9.220;2023-04-21T13:15:11;1.55;;;1.45;;
31438;SDS011;18062;48.872;9.220;2023-04-21T13:17:37;1.80;;;1.70;;
31438;SDS011;18062;48.872;9.220;2023-04-21T13:20:03;2.15;;;1.60;;
31438;SDS011;18062;48.872;9.220;2023-04-21T13:22:31;1.92;;;1.75;;
31438;SDS011;18062;48.872;9.220;2023-04-21T13:24:57;2.13;;;1.98;;
31438;SDS011;18062;48.872;9.220;2023-04-21T13:27:23;1.92;;;1.83;;
31438;SDS011;18062;48.872;9.220;2023-04-21T13:29:49;1.60;;;1.50;;
31438;SDS011;18062;48.872;9.220;2023-04-21T13:32:16;2.20;;;2.10;;
31438;SDS011;18062;48.872;9.220;2023-04-21T13:34:42;2.50;;;2.30;;
31438;SDS011;18062;48.872;9.220;2023-04-21T13:37:08;1.88;;;1.77;;
31438;SDS011;18062;48.872;9.220;2023-04-21T13:39:36;1.98;;;1.88;;
31438;SDS011;18062;48.872;9.220;2023-04-21T13:42:02;1.83;;;1.73;;
31438;SDS011;18062;48.872;9.220;2023-04-21T13:44:28;2.15;;;1.85;;
31438;SDS011;18062;48.872;9.220;2023-04-21T13:46:54;1.90;;;1.80;;
31438;SDS011;18062;48.872;9.220;2023-04-21T13:49:21;1.90;;;1.80;;
31438;SDS011;18062;48.872;9.220;2023-04-21T13:51:47;2.17;;;1.77;;
31438;SDS011;18062;48.872;9.220;2023-04-21T13:54:13;2.05;;;1.95;;
31438;SDS011;18062;48.872;9.220;2023-04-21T13:56:39;1.90;;;1.80;;
31438;SDS011;18062;48.872;9.220;2023-04-21T13:59:05;2.10;;;1.98;;
31438;SDS011;18062;48.872;9.220;2023-04-21T14:01:31;1.88;;;1.77;;
31438;SDS011;18062;48.872;9.220;2023-04-21T14:03:57;1.90;;;1.80;;
31438;SDS011;18062;48.872;9.220;2023-04-21T14:06:23;1.80;;;1.70;;
31438;SDS011;18062;48.872;9.220;2023-04-21T14:08:50;1.90;;;1.80;;
31438;SDS011;18062;48.872;9.220;2023-04-21T14:11:16;2.25;;;2.00;;
31438;SDS011;18062;48.872;9.220;2023-04-21T14:13:42;2.10;;;1.90;;
31438;SDS011;18062;48.872;9.220;2023-04-21T14:16:08;1.80;;;1.70;;
31438;SDS011;18062;48.872;9.220;2023-04-21T14:18:34;2.00;;;1.90;;
31438;SDS011;18062;48.872;9.220;2023-04-21T14:21:02;1.98;;;1.88;;
31438;SDS011;18062;48.872;9.220;2023-04-21T14:23:28;1.70;;;1.60;;
31438;SDS011;18062;48.872;9.220;2023-04-21T14:25:54;2.40;;;2.20;;
31438;SDS011;18062;48.872;9.220;2023-04-21T14:28:20;1.65;;;1.55;;
31438;SDS011;18062;48.872;9.220;2023-04-21T14:30:46;1.50;;;1.40;;
31438;SDS011;18062;48.872;9.220;2023-04-21T14:33:12;1.90;;;1.80;;
31438;SDS011;18062;48.872;9.220;2023-04-21T14:35:38;2.00;;;1.90;;
31438;SDS011;18062;48.872;9.220;2023-04-21T14:38:04;1.60;;;1.50;;
31438;SDS011;18062;48.872;9.220;2023-04-21T14:40:31;1.50;;;1.40;;
31438;SDS011;18062;48.872;9.220;2023-04-21T14:42:57;1.80;;;1.70;;
31438;SDS011;18062;48.872;9.220;2023-04-21T14:45:23;1.55;;;1.45;;
31438;SDS011;18062;48.872;9.220;2023-04-21T14:47:49;2.00;;;1.80;;
31438;SDS011;18062;48.872;9.220;2023-04-21T14:50:15;1.52;;;1.42;;
31438;SDS011;18062;48.872;9.220;2023-04-21T14:52:41;2.63;;;2.42;;